Kivalina, AK

14:12 AKDT le 27 avril 2015 (GMT -0800)
Noatak | | Change Station
CLOSE
Current Station
Aéroport
Location: Noatak,
Altitude: 85 ft
Stations météo à proximité

Alt. 85 ft 67.57 °N, 162.98 °W | Updated 16 minutes ago

Clear
Ciel dégagé
32 ° F
Paraît 32 ° F
N
0
Vent Variable Vent de Nord

Aujourd'hui
Haut(e) -- | Bas -- ° F
--% Risque de précip.
Hier
Haut(e) -- | Bas -- ° F
Precip. -- pouce
6:13 AM 11:34 PM
Lune gibbeuse croissante, 68% visible
Pression 29.77 pouce
Visibilité 10.0 Miles terrestres
Nuages Ciel dégagé
Point de rosée 18 ° F
Humidité 55%
Précipitations 0.00 pouce
Profondeur de la couche neigeuse Non disponible.
UV 4 sur 12
Pollen Non disponible.
Qualité de l'air Non disponible.
Flu Activity Sporadic
METAR PAWN 272156Z AUTO 00000KT 10SM CLR 00/M08 A2977 RMK AO1

More Conditions Fewer Conditions

Pression 29.77 pouce
Visibilité 10.0 Miles terrestres
Nuages Ciel dégagé
Point de rosée 18 ° F
Humidité 55%
Précipitations 0.00 pouce
Profondeur de la couche neigeuse Non disponible.
UV 4 sur 12
Pollen Non disponible.
Qualité de l'air Non disponible.
Flu Activity Sporadic
METAR PAWN 272156Z AUTO 00000KT 10SM CLR 00/M08 A2977 RMK AO1

More Conditions Fewer Conditions

10-Day Weather Forecast

Almanac

Astronomie

Apr. 27, 2015 Lever Coucher
Temps réel
Crépuscule civil
Crépuscule nautique
Crépuscule astronomique
Lune
Durée de lumière visible
Longueur du jour
Tomorrow will be .
, % of the Moon is Illuminated

Extrêmes aujourd'hui

State Highs State Lows

Community

WunderPhotos

Upload Photos

1,817,442 Photos téléchargées !

WunderBlogs® & News

Nearby

Qualité de l'air

  Qualité de l'air Indice de la qualité de l'air Polluant
Not available.

Épaisseur de neige

Station Depth Altitude

Activité sismique

Ville Distance Mag. Time & Date
Minimum magnitude displayed is 2.5.

Températures des eaux côtières

Lieu Température

Stations

Stations météo à proximité

Emplacement de la station Température Refroidissement éolien Point de rosée Humidité Vent Precip. Alt. Mise à jour Type